Meycauayan, Philippines
Current Conditions -  °F | °C
As of 1:00 AM on Friday 28 Nov 2014 (Local Time) from RPLL Reporting Station
Broken Clouds Broken Clouds  
Wind Chill: 79°   Ceiling: 10000
Heat Index: 83°   Visibility: 6mi
Dew Point: 79°   Wind: 3mph
Humidity: 100%   Direction: 280°W
Pressure: 29.85"   Gusts: NA
Location:  14.73°N, 120.91°E
Report Text: RPLL 271700Z 28003KT 9999 SCT023 BKN100 26/26 Q1011 NOSIG RMK A2985
Loading
Personal Weather Stations






























Interactive Weather Map New forecast layout! Learn more

10-Day Weather Forecast

Advertisements
Track Severe Weather on mobile